createdAt,value
2018-07-04T00:03:20.650Z,62.39
2018-07-04T00:08:34.347Z,61.00
2018-07-04T00:13:47.957Z,61.36
2018-07-04T00:19:01.690Z,63.25
2018-07-04T00:24:15.502Z,63.57
2018-07-04T00:29:29.343Z,62.62
2018-07-04T00:34:43.095Z,62.52
2018-07-04T00:39:56.795Z,62.71
2018-07-04T00:45:10.558Z,62.02
2018-07-04T00:50:24.255Z,62.45
2018-07-04T00:55:37.839Z,63.23
2018-07-04T01:00:51.637Z,63.53
2018-07-04T01:06:05.317Z,63.09
2018-07-04T01:11:19.326Z,62.50
2018-07-04T01:16:33.017Z,63.83
2018-07-04T01:21:46.639Z,63.71
2018-07-04T01:27:00.362Z,62.72
2018-07-04T01:32:14.148Z,62.79
2018-07-04T01:37:27.967Z,62.43
2018-07-04T01:42:41.710Z,63.07
2018-07-04T01:47:55.332Z,63.07
2018-07-04T01:53:09.137Z,62.59
2018-07-04T01:58:22.847Z,62.84
2018-07-04T02:03:36.576Z,62.89
2018-07-04T02:08:50.287Z,63.09
2018-07-04T02:14:03.994Z,63.92
2018-07-04T02:19:18.130Z,63.35
2018-07-04T02:24:31.824Z,63.57
2018-07-04T02:29:45.607Z,63.39
2018-07-04T02:35:00.292Z,64.04
2018-07-04T02:40:13.898Z,64.41
2018-07-04T02:45:27.730Z,63.67
2018-07-04T02:50:41.313Z,64.73
2018-07-04T02:55:55.048Z,64.11
2018-07-04T03:01:08.834Z,64.27
2018-07-04T03:06:22.622Z,64.03
2018-07-04T03:11:36.336Z,63.72
2018-07-04T03:16:50.042Z,64.25
2018-07-04T03:22:03.726Z,64.59
2018-07-04T03:27:17.459Z,63.91
2018-07-04T03:32:31.172Z,64.09
2018-07-04T03:37:44.891Z,64.07
2018-07-04T03:42:58.582Z,64.39
2018-07-04T03:48:12.380Z,64.53
2018-07-04T03:53:26.052Z,64.66
2018-07-04T03:58:39.642Z,64.08
2018-07-04T04:03:53.318Z,66.01
2018-07-04T04:09:06.882Z,65.34
2018-07-04T04:14:20.624Z,64.78
2018-07-04T04:19:34.824Z,65.78
2018-07-04T04:24:48.877Z,65.11
2018-07-04T04:30:02.410Z,64.98
2018-07-04T04:35:16.040Z,65.07
2018-07-04T04:40:29.734Z,65.17
2018-07-04T04:45:43.534Z,65.72
2018-07-04T04:50:57.153Z,66.28
2018-07-04T04:56:10.933Z,66.01
2018-07-04T05:01:24.647Z,64.94
2018-07-04T05:06:38.373Z,64.16
2018-07-04T05:11:52.165Z,64.00
2018-07-04T05:17:05.784Z,64.21
2018-07-04T05:22:19.568Z,63.73
2018-07-04T05:27:33.315Z,63.38
2018-07-04T05:32:46.865Z,63.10
2018-07-04T05:38:00.530Z,61.67
2018-07-04T05:43:14.317Z,60.40
2018-07-04T05:48:27.948Z,61.39
2018-07-04T05:53:41.607Z,61.84
2018-07-04T05:58:55.228Z,61.22
2018-07-04T06:04:08.782Z,60.58
2018-07-04T06:09:22.446Z,62.13
2018-07-04T06:14:36.088Z,62.86
2018-07-04T06:19:49.786Z,61.38
2018-07-04T06:25:03.598Z,60.74
2018-07-04T06:30:17.379Z,59.42
2018-07-04T06:36:34.506Z,60.47
2018-07-04T06:41:35.704Z,59.23
2018-07-04T06:46:36.929Z,59.79
2018-07-04T06:51:38.165Z,59.07
2018-07-04T06:56:39.399Z,58.72
2018-07-04T07:01:40.631Z,59.77
2018-07-04T07:06:54.326Z,59.44
2018-07-04T07:12:07.914Z,58.64
2018-07-04T07:17:21.670Z,58.81
2018-07-04T07:22:35.428Z,57.34
2018-07-04T07:27:49.474Z,59.07
2018-07-04T07:33:03.122Z,59.02
2018-07-04T07:38:16.745Z,58.78
2018-07-04T07:43:30.399Z,60.16
2018-07-04T07:48:44.016Z,59.50
2018-07-04T07:53:57.688Z,59.48
2018-07-04T07:59:11.279Z,59.25
2018-07-04T08:04:24.944Z,59.38
2018-07-04T08:09:38.649Z,57.99
2018-07-04T08:14:52.403Z,58.71
2018-07-04T08:20:05.984Z,58.54
2018-07-04T08:25:19.600Z,58.82
2018-07-04T08:30:33.327Z,59.09
2018-07-04T08:35:47.000Z,59.55
2018-07-04T08:41:00.845Z,58.66
2018-07-04T08:46:14.484Z,59.68
2018-07-04T08:51:28.176Z,59.25
2018-07-04T08:56:41.814Z,58.52
2018-07-04T09:01:55.302Z,60.51
2018-07-04T09:07:09.112Z,59.53
2018-07-04T09:12:22.767Z,59.30
2018-07-04T09:17:36.540Z,59.42
2018-07-04T09:22:50.368Z,58.29
2018-07-04T09:28:04.092Z,58.58
2018-07-04T09:33:17.707Z,59.21
2018-07-04T09:38:31.390Z,59.34
2018-07-04T09:43:45.205Z,59.01
2018-07-04T09:48:58.986Z,58.63
2018-07-04T09:54:12.728Z,58.89
2018-07-04T09:59:26.403Z,58.56
2018-07-04T10:04:39.998Z,57.28
2018-07-04T10:09:53.606Z,57.96
2018-07-04T10:15:07.211Z,56.23
2018-07-04T10:20:20.796Z,56.38
2018-07-04T10:25:34.655Z,56.77
2018-07-04T10:30:48.240Z,56.03
2018-07-04T10:36:01.909Z,55.83
2018-07-04T10:41:15.455Z,54.38
2018-07-04T10:46:29.047Z,55.38
2018-07-04T10:51:42.871Z,55.57
2018-07-04T10:56:56.550Z,52.83
2018-07-04T11:02:10.206Z,54.89
2018-07-04T11:07:24.202Z,53.00
2018-07-04T11:12:37.875Z,53.21
2018-07-04T11:17:51.695Z,52.78
2018-07-04T11:23:05.323Z,52.92
2018-07-04T11:28:19.050Z,51.38
2018-07-04T11:33:32.642Z,50.57
2018-07-04T11:38:46.155Z,49.90
2018-07-04T11:43:59.766Z,48.34
2018-07-04T11:49:01.393Z,49.41
2018-07-04T11:54:02.644Z,50.15
2018-07-04T11:59:03.885Z,49.83
2018-07-04T12:04:17.608Z,47.66
2018-07-04T12:09:18.805Z,49.12
2018-07-04T12:14:20.053Z,49.64
2018-07-04T12:19:21.336Z,46.27
2018-07-04T12:24:22.561Z,47.24
2018-07-04T12:29:23.789Z,45.80
2018-07-04T12:34:25.022Z,44.87
2018-07-04T12:39:26.240Z,43.46
2018-07-04T12:44:27.492Z,43.02
2018-07-04T12:49:28.875Z,41.36
2018-07-04T12:54:35.923Z,40.83
2018-07-04T12:59:49.525Z,43.12
2018-07-04T13:05:03.264Z,44.46
2018-07-04T13:10:17.147Z,45.10
2018-07-04T13:15:30.792Z,43.58
2018-07-04T13:20:44.625Z,42.48
2018-07-04T13:25:58.617Z,42.15
2018-07-04T13:31:12.204Z,44.25
2018-07-04T13:36:25.716Z,42.01
2018-07-04T13:41:39.379Z,41.32
2018-07-04T13:46:54.056Z,43.42
2018-07-04T13:52:08.831Z,42.27
2018-07-04T13:57:22.655Z,42.54
2018-07-04T14:02:36.417Z,39.75
2018-07-04T14:07:50.114Z,38.99
2018-07-04T14:13:03.884Z,37.56
2018-07-04T14:18:17.738Z,41.02
2018-07-04T14:23:31.448Z,38.89
2018-07-04T14:28:45.136Z,38.62
2018-07-04T14:33:58.841Z,38.14
2018-07-04T14:39:12.467Z,38.29
2018-07-04T14:44:26.221Z,36.74
2018-07-04T14:49:39.814Z,37.76
2018-07-04T14:54:53.689Z,37.73
2018-07-04T15:00:07.536Z,38.91
2018-07-04T15:05:21.093Z,37.42
2018-07-04T15:10:34.838Z,37.40
2018-07-04T15:15:48.693Z,36.45
2018-07-04T15:21:02.503Z,36.26
2018-07-04T15:26:16.148Z,37.06
2018-07-04T15:31:29.923Z,37.69
2018-07-04T15:36:43.623Z,36.32
2018-07-04T15:41:57.460Z,38.86
2018-07-04T15:47:11.132Z,40.22
2018-07-04T15:52:24.764Z,39.18
2018-07-04T15:57:38.324Z,38.38
2018-07-04T16:02:51.956Z,38.63
2018-07-04T16:08:05.680Z,38.89
2018-07-04T16:13:19.427Z,37.93
2018-07-04T16:18:33.267Z,38.20
2018-07-04T16:23:47.025Z,38.85
2018-07-04T16:29:00.941Z,37.80
2018-07-04T16:34:14.699Z,38.27
2018-07-04T16:39:28.303Z,38.92
2018-07-04T16:44:42.202Z,40.02
2018-07-04T16:49:55.941Z,39.62
2018-07-04T16:55:09.713Z,40.04
2018-07-04T17:00:23.387Z,38.86
2018-07-04T17:05:37.020Z,39.76
2018-07-04T17:10:50.720Z,39.57
2018-07-04T17:16:04.449Z,40.25
2018-07-04T17:21:17.979Z,40.81
2018-07-04T17:26:31.743Z,41.52
2018-07-04T17:31:45.425Z,41.35
2018-07-04T17:36:58.998Z,42.89
2018-07-04T17:42:12.619Z,43.01
2018-07-04T17:47:26.431Z,43.42
2018-07-04T17:52:40.380Z,44.20
2018-07-04T17:57:54.134Z,43.64
2018-07-04T18:03:07.981Z,44.24
2018-07-04T18:08:21.743Z,45.13
2018-07-04T18:13:36.662Z,45.31
2018-07-04T18:18:50.407Z,45.54
2018-07-04T18:24:05.331Z,46.98
2018-07-04T18:29:19.005Z,48.19
2018-07-04T18:34:32.673Z,48.97
2018-07-04T18:39:46.316Z,50.50
2018-07-04T18:45:00.166Z,51.01
2018-07-04T18:50:13.765Z,52.20
2018-07-04T18:55:27.631Z,53.72
2018-07-04T19:00:41.324Z,54.04
2018-07-04T19:05:54.870Z,54.19
2018-07-04T19:11:08.719Z,54.94
2018-07-04T19:16:22.437Z,54.85
2018-07-04T19:21:36.072Z,54.89
2018-07-04T19:26:49.945Z,54.87
2018-07-04T19:32:03.781Z,55.73
2018-07-04T19:37:17.498Z,55.79
2018-07-04T19:42:31.217Z,56.39
2018-07-04T19:47:44.856Z,56.31
2018-07-04T19:52:58.590Z,55.78
2018-07-04T19:58:12.169Z,56.01
2018-07-04T20:03:25.849Z,56.39
2018-07-04T20:08:39.623Z,57.19
2018-07-04T20:13:53.256Z,56.82
2018-07-04T20:19:06.995Z,57.29
2018-07-04T20:24:20.633Z,57.85
2018-07-04T20:29:34.362Z,57.98
2018-07-04T20:34:48.180Z,58.43
2018-07-04T20:40:01.980Z,58.72
2018-07-04T20:45:15.687Z,59.22
2018-07-04T20:50:29.447Z,59.01
2018-07-04T20:55:43.088Z,58.69
2018-07-04T21:00:56.726Z,59.12
2018-07-04T21:06:10.458Z,59.97
2018-07-04T21:11:24.292Z,60.49
2018-07-04T21:16:38.072Z,60.28
2018-07-04T21:21:51.882Z,60.59
2018-07-04T21:27:05.680Z,61.07
2018-07-04T21:32:19.380Z,61.67
2018-07-04T21:37:33.111Z,61.87
2018-07-04T21:42:46.786Z,61.63
2018-07-04T21:48:00.466Z,62.11
2018-07-04T21:53:14.175Z,61.43
2018-07-04T21:58:27.955Z,61.53
2018-07-04T22:03:41.731Z,61.05
2018-07-04T22:08:55.310Z,62.13
2018-07-04T22:14:08.963Z,61.55
2018-07-04T22:19:22.534Z,61.46
2018-07-04T22:24:36.255Z,60.30
2018-07-04T22:29:49.837Z,60.14
2018-07-04T22:35:03.476Z,60.16
2018-07-04T22:40:17.095Z,59.55
2018-07-04T22:45:30.644Z,58.96
2018-07-04T22:50:44.293Z,59.00
2018-07-04T22:55:58.048Z,59.29
2018-07-04T23:01:11.603Z,58.82
2018-07-04T23:06:25.442Z,59.02
2018-07-04T23:11:39.110Z,59.26
2018-07-04T23:16:52.820Z,59.41
2018-07-04T23:22:06.748Z,58.45
2018-07-04T23:27:20.429Z,58.43
2018-07-04T23:32:34.140Z,58.14
2018-07-04T23:37:47.964Z,58.26
2018-07-04T23:43:01.622Z,58.57
2018-07-04T23:48:15.349Z,59.48
2018-07-04T23:53:29.039Z,59.03
2018-07-04T23:58:42.616Z,59.63
